JAL1650 RJAA-VTBD
Flight info
| Callsign | JAL1650 |
|---|---|
| Flight time | 5h 6m |
| Altitude | 40000 |
| Route | SAMUS Y84 HCE Y86 YULIA Y293 TONAR Y52 IGURU Q13 PICHU J7 HCN G86 KAPLI DCT MADRU DCT SULUX DCT IGLEG DCT IKELA/K0898F400 A1 PAPRA/N0485F400 A1 UBL Y20 UBLOD ENDUU3A |
| Aircraft | A359/H-SDE2E3GHIJ3J4J5LM1ORWXY/LB1D1 |
Departure
| Time | 2026-05-08 01:27 |
|---|---|
| Airport | Narita International Airport (RJAA) |
Arrival
| Time | 2026-05-08 06:33 |
|---|---|
| Airport | Don Mueang International Airport (VTBD) |
| Time | Latitude | Longitude | Altitude | Speed | Heading |
|---|---|---|---|---|---|
| 2026-05-08 00:56 | 35.77131 | 140.39145 | 178 ft | 0 kts | 239° |
| 2026-05-08 01:08 | 35.77138 | 140.39160 | 150 ft | 4 kts | 239° |
| 2026-05-08 01:08 | 35.77148 | 140.39182 | 150 ft | 4 kts | 240° |
| 2026-05-08 01:08 | 35.77162 | 140.39210 | 150 ft | 4 kts | 230° |
| 2026-05-08 01:09 | 35.77172 | 140.39223 | 150 ft | 4 kts | 207° |
| 2026-05-08 01:09 | 35.77175 | 140.39229 | 150 ft | 4 kts | 149° |
| 2026-05-08 01:09 | 35.77198 | 140.39213 | 150 ft | 2 kts | 149° |
| 2026-05-08 01:09 | 35.77200 | 140.39211 | 150 ft | 0 kts | 149° |
| 2026-05-08 01:13 | 35.77167 | 140.39234 | 150 ft | 11 kts | 149° |
| 2026-05-08 01:14 | 35.77084 | 140.39294 | 150 ft | 15 kts | 150° |
| 2026-05-08 01:14 | 35.76985 | 140.39365 | 150 ft | 17 kts | 150° |
| 2026-05-08 01:14 | 35.76948 | 140.39392 | 150 ft | 0 kts | 149° |
| 2026-05-08 01:14 | 35.76938 | 140.39399 | 150 ft | 4 kts | 146° |
| 2026-05-08 01:15 | 35.76930 | 140.39438 | 150 ft | 4 kts | 72° |
| 2026-05-08 01:15 | 35.76955 | 140.39491 | 150 ft | 10 kts | 58° |
| 2026-05-08 01:15 | 35.77002 | 140.39584 | 150 ft | 15 kts | 59° |
| 2026-05-08 01:15 | 35.76996 | 140.39712 | 150 ft | 16 kts | 117° |
| 2026-05-08 01:16 | 35.76944 | 140.39846 | 150 ft | 18 kts | 114° |
| 2026-05-08 01:16 | 35.76866 | 140.39890 | 150 ft | 13 kts | 189° |
| 2026-05-08 01:16 | 35.76769 | 140.39881 | 150 ft | 14 kts | 186° |
| 2026-05-08 01:16 | 35.76687 | 140.39811 | 150 ft | 15 kts | 225° |
| 2026-05-08 01:17 | 35.76600 | 140.39733 | 150 ft | 15 kts | 217° |
| 2026-05-08 01:17 | 35.76591 | 140.39622 | 150 ft | 12 kts | 251° |
| 2026-05-08 01:17 | 35.76521 | 140.39571 | 150 ft | 12 kts | 204° |
| 2026-05-08 01:17 | 35.76435 | 140.39524 | 150 ft | 14 kts | 204° |
| 2026-05-08 01:18 | 35.76339 | 140.39471 | 150 ft | 16 kts | 205° |
| 2026-05-08 01:18 | 35.76236 | 140.39414 | 150 ft | 17 kts | 204° |
| 2026-05-08 01:18 | 35.76124 | 140.39352 | 150 ft | 18 kts | 204° |
| 2026-05-08 01:18 | 35.76006 | 140.39287 | 150 ft | 19 kts | 204° |
| 2026-05-08 01:19 | 35.75883 | 140.39216 | 150 ft | 20 kts | 205° |
| 2026-05-08 01:19 | 35.75788 | 140.39094 | 150 ft | 20 kts | 240° |
| 2026-05-08 01:19 | 35.75717 | 140.38944 | 150 ft | 20 kts | 238° |
| 2026-05-08 01:19 | 35.75642 | 140.38791 | 150 ft | 21 kts | 240° |
| 2026-05-08 01:20 | 35.75597 | 140.38622 | 150 ft | 21 kts | 270° |
| 2026-05-08 01:20 | 35.75637 | 140.38516 | 150 ft | 14 kts | 326° |
| 2026-05-08 01:20 | 35.75726 | 140.38451 | 150 ft | 16 kts | 329° |
| 2026-05-08 01:20 | 35.75826 | 140.38378 | 150 ft | 17 kts | 329° |
| 2026-05-08 01:21 | 35.75934 | 140.38302 | 150 ft | 19 kts | 330° |
| 2026-05-08 01:21 | 35.76052 | 140.38216 | 150 ft | 20 kts | 328° |
| 2026-05-08 01:21 | 35.76177 | 140.38125 | 150 ft | 21 kts | 329° |
| 2026-05-08 01:21 | 35.76308 | 140.38031 | 150 ft | 23 kts | 330° |
| 2026-05-08 01:22 | 35.76387 | 140.37975 | 150 ft | 5 kts | 329° |
| 2026-05-08 01:22 | 35.76415 | 140.37925 | 150 ft | 7 kts | 266° |
| 2026-05-08 01:22 | 35.76393 | 140.37864 | 150 ft | 8 kts | 263° |
| 2026-05-08 01:22 | 35.76425 | 140.37820 | 150 ft | 8 kts | 327° |
| 2026-05-08 01:23 | 35.76479 | 140.37780 | 150 ft | 10 kts | 329° |
| 2026-05-08 01:23 | 35.76545 | 140.37731 | 150 ft | 12 kts | 329° |
| 2026-05-08 01:23 | 35.76626 | 140.37672 | 150 ft | 15 kts | 329° |
| 2026-05-08 01:23 | 35.76719 | 140.37606 | 150 ft | 16 kts | 330° |
| 2026-05-08 01:24 | 35.76821 | 140.37533 | 150 ft | 18 kts | 329° |
| 2026-05-08 01:24 | 35.76931 | 140.37453 | 149 ft | 19 kts | 329° |
| 2026-05-08 01:24 | 35.77050 | 140.37364 | 149 ft | 21 kts | 329° |
| 2026-05-08 01:24 | 35.77180 | 140.37276 | 149 ft | 22 kts | 331° |
| 2026-05-08 01:25 | 35.77314 | 140.37177 | 149 ft | 23 kts | 328° |
| 2026-05-08 01:25 | 35.77448 | 140.37081 | 149 ft | 17 kts | 330° |
| 2026-05-08 01:25 | 35.77500 | 140.37006 | 150 ft | 10 kts | 264° |
| 2026-05-08 01:25 | 35.77466 | 140.36921 | 150 ft | 12 kts | 242° |
| 2026-05-08 01:26 | 35.77414 | 140.36855 | 150 ft | 8 kts | 179° |
| 2026-05-08 01:26 | 35.77363 | 140.36886 | 149 ft | 10 kts | 152° |
| 2026-05-08 01:26 | 35.77251 | 140.36967 | 148 ft | 41 kts | 150° |
| 2026-05-08 01:26 | 35.76799 | 140.37291 | 150 ft | 107 kts | 150° |
| 2026-05-08 01:27 | 35.75988 | 140.37879 | 151 ft | 162 kts | 149° |
| 2026-05-08 01:27 | 35.75001 | 140.38650 | 729 ft | 166 kts | 152° |
| 2026-05-08 01:27 | 35.74047 | 140.39446 | 1406 ft | 170 kts | 152° |
| 2026-05-08 01:27 | 35.72987 | 140.40219 | 1832 ft | 183 kts | 157° |
| 2026-05-08 01:28 | 35.71803 | 140.40997 | 2092 ft | 202 kts | 156° |
| 2026-05-08 01:28 | 35.70523 | 140.41867 | 2593 ft | 216 kts | 154° |
| 2026-05-08 01:28 | 35.69188 | 140.42801 | 3039 ft | 234 kts | 155° |
| 2026-05-08 01:28 | 35.67699 | 140.43856 | 3424 ft | 254 kts | 154° |
| 2026-05-08 01:29 | 35.66146 | 140.44969 | 4164 ft | 259 kts | 154° |
| 2026-05-08 01:29 | 35.64577 | 140.46103 | 4939 ft | 263 kts | 154° |
| 2026-05-08 01:29 | 35.62991 | 140.47246 | 5625 ft | 270 kts | 154° |
| 2026-05-08 01:29 | 35.61348 | 140.48426 | 6400 ft | 275 kts | 155° |
| 2026-05-08 01:30 | 35.59680 | 140.49627 | 7226 ft | 278 kts | 155° |
| 2026-05-08 01:30 | 35.58005 | 140.50833 | 8080 ft | 280 kts | 155° |
| 2026-05-08 01:30 | 35.56338 | 140.52037 | 8929 ft | 283 kts | 156° |
| 2026-05-08 01:30 | 35.54632 | 140.53261 | 9791 ft | 285 kts | 156° |
| 2026-05-08 01:31 | 35.52892 | 140.54505 | 10432 ft | 295 kts | 156° |
| 2026-05-08 01:31 | 35.51058 | 140.55807 | 10795 ft | 314 kts | 156° |
| 2026-05-08 01:31 | 35.49102 | 140.57199 | 11142 ft | 333 kts | 156° |
| 2026-05-08 01:31 | 35.47065 | 140.58654 | 11505 ft | 349 kts | 156° |
| 2026-05-08 01:32 | 35.44940 | 140.60193 | 12082 ft | 357 kts | 155° |
| 2026-05-08 01:32 | 35.42937 | 140.62025 | 12754 ft | 370 kts | 143° |
| 2026-05-08 01:32 | 35.41248 | 140.64471 | 13435 ft | 382 kts | 131° |
| 2026-05-08 01:32 | 35.39738 | 140.67185 | 14040 ft | 387 kts | 130° |
| 2026-05-08 01:33 | 35.38244 | 140.69927 | 14587 ft | 392 kts | 130° |
| 2026-05-08 01:33 | 35.36715 | 140.72711 | 15140 ft | 396 kts | 130° |
| 2026-05-08 01:33 | 35.35159 | 140.75524 | 15697 ft | 400 kts | 131° |
| 2026-05-08 01:33 | 35.33585 | 140.78362 | 16264 ft | 404 kts | 131° |
| 2026-05-08 01:34 | 35.31986 | 140.81233 | 16820 ft | 408 kts | 131° |
| 2026-05-08 01:34 | 35.30392 | 140.84094 | 17381 ft | 412 kts | 131° |
| 2026-05-08 01:34 | 35.28757 | 140.87021 | 17933 ft | 417 kts | 131° |
| 2026-05-08 01:34 | 35.27112 | 140.89965 | 18448 ft | 421 kts | 131° |
| 2026-05-08 01:35 | 35.25469 | 140.92904 | 18978 ft | 423 kts | 131° |
| 2026-05-08 01:35 | 35.23733 | 140.95817 | 19531 ft | 421 kts | 136° |
| 2026-05-08 01:35 | 35.21682 | 140.98379 | 20080 ft | 415 kts | 147° |
| 2026-05-08 01:35 | 35.19363 | 141.00363 | 20600 ft | 409 kts | 157° |
| 2026-05-08 01:36 | 35.16784 | 141.01795 | 21132 ft | 403 kts | 167° |
| 2026-05-08 01:36 | 35.14083 | 141.02619 | 21658 ft | 398 kts | 177° |
| 2026-05-08 01:36 | 35.11358 | 141.02885 | 22194 ft | 396 kts | 183° |
| 2026-05-08 01:36 | 35.08586 | 141.03022 | 22734 ft | 400 kts | 183° |
| 2026-05-08 01:37 | 35.05784 | 141.03189 | 23279 ft | 403 kts | 182° |
| 2026-05-08 01:37 | 35.02973 | 141.03380 | 23753 ft | 406 kts | 182° |
| 2026-05-08 01:37 | 35.00149 | 141.03585 | 24189 ft | 410 kts | 182° |
| 2026-05-08 01:37 | 34.97279 | 141.03801 | 24617 ft | 414 kts | 182° |
| 2026-05-08 01:38 | 34.94384 | 141.04023 | 25059 ft | 418 kts | 182° |
| 2026-05-08 01:38 | 34.91502 | 141.04246 | 25508 ft | 421 kts | 182° |
| 2026-05-08 01:38 | 34.88551 | 141.04475 | 25952 ft | 425 kts | 182° |
| 2026-05-08 01:38 | 34.85582 | 141.04707 | 26389 ft | 428 kts | 182° |
| 2026-05-08 01:39 | 34.82594 | 141.04940 | 26817 ft | 432 kts | 182° |
| 2026-05-08 01:39 | 34.79620 | 141.05172 | 27233 ft | 436 kts | 182° |
| 2026-05-08 01:39 | 34.76575 | 141.05412 | 27652 ft | 439 kts | 182° |
| 2026-05-08 01:39 | 34.73512 | 141.05652 | 28070 ft | 443 kts | 182° |
| 2026-05-08 01:40 | 34.70397 | 141.05892 | 28483 ft | 447 kts | 182° |
| 2026-05-08 01:40 | 34.67324 | 141.06129 | 28873 ft | 450 kts | 182° |
| 2026-05-08 01:40 | 34.64179 | 141.06373 | 29281 ft | 453 kts | 182° |
| 2026-05-08 01:40 | 34.61026 | 141.06408 | 29656 ft | 450 kts | 191° |
| 2026-05-08 01:41 | 34.57985 | 141.05642 | 30038 ft | 443 kts | 204° |
| 2026-05-08 01:41 | 34.55263 | 141.04037 | 30369 ft | 437 kts | 217° |
| 2026-05-08 01:41 | 34.52901 | 141.01715 | 30732 ft | 435 kts | 226° |
| 2026-05-08 01:41 | 34.50721 | 140.99159 | 31058 ft | 437 kts | 227° |
| 2026-05-08 01:42 | 34.48534 | 140.96563 | 31401 ft | 439 kts | 227° |
| 2026-05-08 01:42 | 34.46356 | 140.93991 | 31719 ft | 441 kts | 226° |
| 2026-05-08 01:42 | 34.44144 | 140.91392 | 32037 ft | 443 kts | 226° |
| 2026-05-08 01:42 | 34.41943 | 140.88814 | 32340 ft | 445 kts | 226° |
| 2026-05-08 01:43 | 34.39706 | 140.86199 | 32637 ft | 447 kts | 226° |
| 2026-05-08 01:43 | 34.37459 | 140.83575 | 32955 ft | 448 kts | 226° |
| 2026-05-08 01:43 | 34.35210 | 140.80958 | 33385 ft | 447 kts | 226° |
| 2026-05-08 01:43 | 34.32967 | 140.78355 | 33812 ft | 445 kts | 226° |
| 2026-05-08 01:44 | 34.30737 | 140.75764 | 34172 ft | 444 kts | 226° |
| 2026-05-08 01:44 | 34.28513 | 140.73181 | 34528 ft | 443 kts | 226° |
| 2026-05-08 01:44 | 34.26319 | 140.70637 | 34881 ft | 441 kts | 226° |
| 2026-05-08 01:44 | 34.24098 | 140.68064 | 35238 ft | 440 kts | 226° |
| 2026-05-08 01:45 | 34.21889 | 140.65506 | 35578 ft | 438 kts | 226° |
| 2026-05-08 01:45 | 34.19681 | 140.62952 | 35907 ft | 437 kts | 226° |
| 2026-05-08 01:45 | 34.17512 | 140.60444 | 36224 ft | 436 kts | 226° |
| 2026-05-08 01:45 | 34.15318 | 140.57909 | 36525 ft | 435 kts | 226° |
| 2026-05-08 01:46 | 34.13127 | 140.55381 | 36828 ft | 434 kts | 226° |
| 2026-05-08 01:46 | 34.10937 | 140.52855 | 37123 ft | 433 kts | 226° |
| 2026-05-08 01:46 | 34.08779 | 140.50368 | 37407 ft | 432 kts | 226° |
| 2026-05-08 01:46 | 34.06600 | 140.47859 | 37693 ft | 432 kts | 226° |
| 2026-05-08 01:47 | 34.04420 | 140.45351 | 37969 ft | 431 kts | 226° |
| 2026-05-08 01:47 | 34.02273 | 140.42882 | 38236 ft | 430 kts | 226° |
| 2026-05-08 01:47 | 34.00110 | 140.40396 | 38487 ft | 429 kts | 226° |
| 2026-05-08 01:48 | 33.95782 | 140.35428 | 38883 ft | 428 kts | 226° |
| 2026-05-08 01:48 | 33.93619 | 140.32948 | 39056 ft | 428 kts | 226° |
| 2026-05-08 01:48 | 33.91486 | 140.30504 | 39236 ft | 428 kts | 226° |
| 2026-05-08 01:48 | 33.89314 | 140.28018 | 39389 ft | 428 kts | 226° |
| 2026-05-08 01:49 | 33.87151 | 140.25544 | 39534 ft | 428 kts | 226° |
| 2026-05-08 01:49 | 33.84964 | 140.23176 | 39684 ft | 430 kts | 222° |
| 2026-05-08 01:49 | 33.82513 | 140.21081 | 39830 ft | 434 kts | 215° |
| 2026-05-08 01:49 | 33.79856 | 140.19311 | 39893 ft | 437 kts | 212° |
| 2026-05-08 01:50 | 33.74390 | 140.16025 | 39897 ft | 438 kts | 211° |
| 2026-05-08 01:50 | 33.68933 | 140.12839 | 39902 ft | 439 kts | 211° |
| 2026-05-08 01:51 | 33.63441 | 140.09603 | 39904 ft | 439 kts | 211° |
| 2026-05-08 01:51 | 33.57979 | 140.06360 | 39907 ft | 439 kts | 211° |
| 2026-05-08 01:52 | 33.52491 | 140.03097 | 39911 ft | 439 kts | 211° |
| 2026-05-08 01:52 | 33.47029 | 139.99855 | 39914 ft | 440 kts | 211° |
| 2026-05-08 01:53 | 33.41525 | 139.96596 | 39914 ft | 440 kts | 211° |
| 2026-05-08 01:53 | 33.36046 | 139.93355 | 39908 ft | 441 kts | 211° |
| 2026-05-08 01:54 | 33.30555 | 139.90111 | 39909 ft | 441 kts | 211° |
| 2026-05-08 01:54 | 33.25026 | 139.86849 | 39914 ft | 442 kts | 211° |
| 2026-05-08 01:55 | 33.19503 | 139.83589 | 39918 ft | 442 kts | 212° |
| 2026-05-08 01:55 | 33.14488 | 139.79548 | 39916 ft | 433 kts | 226° |
| 2026-05-08 01:56 | 33.10653 | 139.74077 | 39925 ft | 427 kts | 241° |
| 2026-05-08 01:56 | 33.08280 | 139.67646 | 39926 ft | 426 kts | 251° |
| 2026-05-08 01:57 | 33.06739 | 139.62069 | 39921 ft | 426 kts | 252° |
| 2026-05-08 01:57 | 33.04637 | 139.54215 | 39924 ft | 426 kts | 252° |
| 2026-05-08 01:58 | 33.03110 | 139.48611 | 39922 ft | 426 kts | 252° |
| 2026-05-08 01:58 | 33.01263 | 139.41923 | 39925 ft | 426 kts | 252° |
| 2026-05-08 01:59 | 32.99389 | 139.35184 | 39926 ft | 426 kts | 252° |
| 2026-05-08 01:59 | 32.97532 | 139.28519 | 39925 ft | 426 kts | 252° |
| 2026-05-08 02:00 | 32.95666 | 139.21830 | 39924 ft | 425 kts | 252° |
| 2026-05-08 02:00 | 32.93792 | 139.15127 | 39924 ft | 425 kts | 252° |
| 2026-05-08 02:01 | 32.91926 | 139.08468 | 39923 ft | 425 kts | 252° |
| 2026-05-08 02:01 | 32.90062 | 139.01835 | 39923 ft | 424 kts | 252° |
| 2026-05-08 02:02 | 32.88181 | 138.95156 | 39924 ft | 424 kts | 252° |
| 2026-05-08 02:02 | 32.86310 | 138.88526 | 39922 ft | 425 kts | 252° |
| 2026-05-08 02:03 | 32.84420 | 138.81844 | 39922 ft | 425 kts | 251° |
| 2026-05-08 02:03 | 32.82538 | 138.75208 | 39923 ft | 425 kts | 251° |
| 2026-05-08 02:04 | 32.80638 | 138.68520 | 39920 ft | 425 kts | 251° |
| 2026-05-08 02:04 | 32.78748 | 138.61887 | 39922 ft | 425 kts | 251° |
| 2026-05-08 02:05 | 32.76852 | 138.55241 | 39922 ft | 425 kts | 251° |
| 2026-05-08 02:05 | 32.74959 | 138.48614 | 39917 ft | 425 kts | 251° |
| 2026-05-08 02:06 | 32.73052 | 138.41953 | 39921 ft | 425 kts | 251° |
| 2026-05-08 02:06 | 32.71153 | 138.35336 | 39920 ft | 425 kts | 251° |
| 2026-05-08 02:07 | 32.69236 | 138.28672 | 39920 ft | 425 kts | 251° |
| 2026-05-08 02:07 | 32.67330 | 138.22063 | 39919 ft | 425 kts | 251° |
| 2026-05-08 02:08 | 32.65414 | 138.15431 | 39916 ft | 424 kts | 251° |
| 2026-05-08 02:08 | 32.63504 | 138.08837 | 39917 ft | 424 kts | 251° |
| 2026-05-08 02:09 | 32.61574 | 138.02188 | 39919 ft | 424 kts | 251° |
| 2026-05-08 02:09 | 32.59657 | 137.95601 | 39917 ft | 424 kts | 251° |
| 2026-05-08 02:10 | 32.57725 | 137.88974 | 39915 ft | 424 kts | 251° |
| 2026-05-08 02:10 | 32.55802 | 137.82396 | 39913 ft | 424 kts | 251° |
| 2026-05-08 02:11 | 32.53862 | 137.75769 | 39912 ft | 424 kts | 251° |
| 2026-05-08 02:11 | 32.51922 | 137.69160 | 39915 ft | 424 kts | 251° |
| 2026-05-08 02:12 | 32.49986 | 137.62580 | 39916 ft | 424 kts | 251° |
| 2026-05-08 02:12 | 32.48036 | 137.55966 | 39914 ft | 424 kts | 251° |
| 2026-05-08 02:13 | 32.46095 | 137.49397 | 39917 ft | 424 kts | 251° |
| 2026-05-08 02:13 | 32.44151 | 137.42832 | 39918 ft | 424 kts | 251° |
| 2026-05-08 02:14 | 32.42193 | 137.36234 | 39917 ft | 424 kts | 251° |
| 2026-05-08 02:14 | 32.40232 | 137.29639 | 39920 ft | 424 kts | 251° |
| 2026-05-08 02:15 | 32.38277 | 137.23082 | 39923 ft | 424 kts | 251° |
| 2026-05-08 02:15 | 32.36308 | 137.16491 | 39921 ft | 424 kts | 251° |
| 2026-05-08 02:16 | 32.34338 | 137.09910 | 39923 ft | 424 kts | 251° |
| 2026-05-08 02:16 | 32.32373 | 137.03360 | 39924 ft | 424 kts | 251° |
| 2026-05-08 02:17 | 32.30405 | 136.96814 | 39918 ft | 424 kts | 251° |
| 2026-05-08 02:17 | 32.28420 | 136.90228 | 39917 ft | 424 kts | 251° |
| 2026-05-08 02:18 | 32.26449 | 136.83698 | 39921 ft | 424 kts | 251° |
| 2026-05-08 02:18 | 32.24457 | 136.77117 | 39922 ft | 424 kts | 251° |
| 2026-05-08 02:19 | 32.22480 | 136.70596 | 39921 ft | 424 kts | 251° |
| 2026-05-08 02:19 | 32.20484 | 136.64028 | 39922 ft | 424 kts | 251° |
| 2026-05-08 02:20 | 32.18486 | 136.57469 | 39921 ft | 424 kts | 251° |
| 2026-05-08 02:20 | 32.16482 | 136.50902 | 39921 ft | 424 kts | 251° |
| 2026-05-08 02:21 | 32.14490 | 136.44389 | 39920 ft | 424 kts | 251° |
| 2026-05-08 02:21 | 32.12492 | 136.37871 | 39922 ft | 424 kts | 251° |
| 2026-05-08 02:22 | 32.10476 | 136.31306 | 39923 ft | 424 kts | 251° |
| 2026-05-08 02:22 | 32.08471 | 136.24795 | 39922 ft | 424 kts | 251° |
| 2026-05-08 02:23 | 32.06462 | 136.18280 | 39926 ft | 424 kts | 251° |
| 2026-05-08 02:23 | 32.04438 | 136.11732 | 39924 ft | 424 kts | 251° |
| 2026-05-08 02:24 | 32.02422 | 136.05224 | 39924 ft | 424 kts | 251° |
| 2026-05-08 02:24 | 32.00394 | 135.98690 | 39922 ft | 424 kts | 251° |
| 2026-05-08 02:25 | 31.98378 | 135.92208 | 39926 ft | 424 kts | 251° |
| 2026-05-08 02:25 | 31.96338 | 135.85663 | 39925 ft | 424 kts | 251° |
| 2026-05-08 02:26 | 31.94310 | 135.79170 | 39926 ft | 424 kts | 251° |
| 2026-05-08 02:26 | 31.92262 | 135.72628 | 39923 ft | 424 kts | 251° |
| 2026-05-08 02:27 | 31.90229 | 135.66145 | 39931 ft | 424 kts | 251° |
| 2026-05-08 02:27 | 31.88187 | 135.59649 | 39921 ft | 424 kts | 251° |
| 2026-05-08 02:28 | 31.86135 | 135.53132 | 39927 ft | 424 kts | 251° |
| 2026-05-08 02:28 | 31.84078 | 135.46615 | 39926 ft | 424 kts | 251° |
| 2026-05-08 02:29 | 31.82029 | 135.40136 | 39932 ft | 425 kts | 251° |
| 2026-05-08 02:29 | 31.79957 | 135.33599 | 39930 ft | 425 kts | 251° |
| 2026-05-08 02:30 | 31.77900 | 135.27120 | 39932 ft | 425 kts | 251° |
| 2026-05-08 02:30 | 31.75823 | 135.20592 | 39936 ft | 425 kts | 251° |
| 2026-05-08 02:31 | 31.73758 | 135.14116 | 39932 ft | 425 kts | 251° |
| 2026-05-08 02:31 | 31.71503 | 135.07669 | 39933 ft | 427 kts | 244° |
| 2026-05-08 02:32 | 31.68435 | 135.01735 | 39934 ft | 429 kts | 240° |
| 2026-05-08 02:32 | 31.65157 | 134.95873 | 39932 ft | 429 kts | 239° |
| 2026-05-08 02:33 | 31.61840 | 134.90006 | 39932 ft | 430 kts | 240° |
| 2026-05-08 02:33 | 31.58567 | 134.84196 | 39935 ft | 430 kts | 240° |
| 2026-05-08 02:34 | 31.55270 | 134.78330 | 39938 ft | 430 kts | 240° |
| 2026-05-08 02:34 | 31.51986 | 134.72491 | 39938 ft | 430 kts | 240° |
| 2026-05-08 02:35 | 31.48679 | 134.66620 | 39940 ft | 430 kts | 240° |
| 2026-05-08 02:35 | 31.45392 | 134.60796 | 39939 ft | 431 kts | 240° |
| 2026-05-08 02:36 | 31.42079 | 134.54933 | 39943 ft | 431 kts | 240° |
| 2026-05-08 02:36 | 31.38761 | 134.49074 | 39940 ft | 431 kts | 240° |
| 2026-05-08 02:37 | 31.35464 | 134.43258 | 39945 ft | 431 kts | 240° |
| 2026-05-08 02:37 | 31.32142 | 134.37406 | 39944 ft | 431 kts | 240° |
| 2026-05-08 02:38 | 31.28839 | 134.31598 | 39945 ft | 431 kts | 240° |
| 2026-05-08 02:38 | 31.25513 | 134.25758 | 39946 ft | 431 kts | 240° |
| 2026-05-08 02:39 | 31.22183 | 134.19918 | 39960 ft | 431 kts | 240° |
| 2026-05-08 02:39 | 31.18868 | 134.14114 | 39951 ft | 431 kts | 240° |
| 2026-05-08 02:40 | 31.15527 | 134.08274 | 39940 ft | 432 kts | 240° |
| 2026-05-08 02:40 | 31.12194 | 134.02456 | 39957 ft | 432 kts | 240° |
| 2026-05-08 02:41 | 31.08842 | 133.96613 | 39945 ft | 432 kts | 240° |
| 2026-05-08 02:41 | 31.05513 | 133.90820 | 39954 ft | 432 kts | 240° |
| 2026-05-08 02:42 | 31.02155 | 133.84986 | 39950 ft | 432 kts | 240° |
| 2026-05-08 02:42 | 30.98814 | 133.79188 | 39957 ft | 432 kts | 240° |
| 2026-05-08 02:43 | 30.95478 | 133.73407 | 39959 ft | 432 kts | 240° |
| 2026-05-08 02:43 | 30.92121 | 133.67601 | 39955 ft | 431 kts | 240° |
| 2026-05-08 02:44 | 30.88759 | 133.61792 | 39953 ft | 432 kts | 240° |
| 2026-05-08 02:44 | 30.85969 | 133.56974 | 39954 ft | 432 kts | 240° |
| 2026-05-08 02:45 | 30.82611 | 133.51183 | 39963 ft | 432 kts | 240° |
| 2026-05-08 02:45 | 30.79242 | 133.45383 | 39965 ft | 431 kts | 240° |
| 2026-05-08 02:46 | 30.75890 | 133.39621 | 39965 ft | 431 kts | 240° |
| 2026-05-08 02:46 | 30.72517 | 133.33832 | 39967 ft | 431 kts | 240° |
| 2026-05-08 02:47 | 30.69161 | 133.28080 | 39967 ft | 431 kts | 240° |
| 2026-05-08 02:47 | 30.65785 | 133.22301 | 39969 ft | 431 kts | 240° |
| 2026-05-08 02:48 | 30.62410 | 133.16534 | 39969 ft | 431 kts | 240° |
| 2026-05-08 02:48 | 30.59050 | 133.10801 | 39975 ft | 431 kts | 240° |
| 2026-05-08 02:49 | 30.55689 | 133.05074 | 39971 ft | 431 kts | 240° |
| 2026-05-08 02:49 | 30.52316 | 132.99334 | 39973 ft | 430 kts | 240° |
| 2026-05-08 02:50 | 30.48938 | 132.93593 | 39975 ft | 430 kts | 240° |
| 2026-05-08 02:50 | 30.45554 | 132.87852 | 39978 ft | 430 kts | 240° |
| 2026-05-08 02:51 | 30.42172 | 132.82122 | 39978 ft | 430 kts | 240° |
| 2026-05-08 02:51 | 30.38803 | 132.76422 | 39979 ft | 430 kts | 240° |
| 2026-05-08 02:52 | 30.35414 | 132.70696 | 39980 ft | 430 kts | 240° |
| 2026-05-08 02:52 | 30.32050 | 132.65021 | 39982 ft | 430 kts | 240° |
| 2026-05-08 02:53 | 30.28669 | 132.59325 | 39985 ft | 430 kts | 240° |
| 2026-05-08 02:53 | 30.25275 | 132.53615 | 39985 ft | 430 kts | 240° |
| 2026-05-08 02:54 | 30.21879 | 132.47911 | 39989 ft | 429 kts | 240° |
| 2026-05-08 02:54 | 30.18510 | 132.42258 | 39989 ft | 429 kts | 240° |
| 2026-05-08 02:55 | 30.13410 | 132.33718 | 39989 ft | 429 kts | 240° |
| 2026-05-08 02:56 | 30.10032 | 132.28071 | 39990 ft | 429 kts | 240° |
| 2026-05-08 02:56 | 30.06648 | 132.22423 | 39993 ft | 429 kts | 240° |
| 2026-05-08 02:57 | 30.03246 | 132.16750 | 39993 ft | 429 kts | 240° |
| 2026-05-08 02:57 | 29.99841 | 132.11083 | 39991 ft | 429 kts | 240° |
| 2026-05-08 02:58 | 29.96453 | 132.05452 | 39992 ft | 429 kts | 240° |
| 2026-05-08 02:58 | 29.93047 | 131.99798 | 39999 ft | 429 kts | 240° |
| 2026-05-08 02:59 | 29.89650 | 131.94166 | 39998 ft | 429 kts | 240° |
| 2026-05-08 02:59 | 29.86238 | 131.88518 | 40000 ft | 429 kts | 240° |
| 2026-05-08 03:00 | 29.82842 | 131.82905 | 39996 ft | 429 kts | 240° |
| 2026-05-08 03:00 | 29.79423 | 131.77248 | 39999 ft | 429 kts | 240° |
| 2026-05-08 03:01 | 29.76040 | 131.71615 | 40002 ft | 429 kts | 240° |
| 2026-05-08 03:01 | 29.72635 | 131.65951 | 40002 ft | 429 kts | 240° |
| 2026-05-08 03:02 | 29.69239 | 131.60316 | 40006 ft | 429 kts | 240° |
| 2026-05-08 03:02 | 29.65822 | 131.54659 | 40001 ft | 430 kts | 240° |
| 2026-05-08 03:03 | 29.62428 | 131.49047 | 40002 ft | 430 kts | 240° |
| 2026-05-08 03:03 | 29.59004 | 131.43394 | 40004 ft | 430 kts | 240° |
| 2026-05-08 03:04 | 29.55597 | 131.37776 | 40000 ft | 430 kts | 240° |
| 2026-05-08 03:04 | 29.52168 | 131.32130 | 40002 ft | 430 kts | 240° |
| 2026-05-08 03:05 | 29.48755 | 131.26516 | 40014 ft | 430 kts | 240° |
| 2026-05-08 03:05 | 29.45319 | 131.20873 | 40008 ft | 430 kts | 240° |
| 2026-05-08 03:06 | 29.41901 | 131.15269 | 40009 ft | 431 kts | 240° |
| 2026-05-08 03:06 | 29.38457 | 131.09629 | 40013 ft | 431 kts | 240° |
| 2026-05-08 03:07 | 29.35010 | 131.03990 | 40017 ft | 431 kts | 240° |
| 2026-05-08 03:07 | 29.31578 | 130.98384 | 40020 ft | 431 kts | 239° |
| 2026-05-08 03:08 | 29.28136 | 130.92770 | 40011 ft | 431 kts | 239° |
| 2026-05-08 03:08 | 29.24699 | 130.87172 | 40014 ft | 431 kts | 239° |
| 2026-05-08 03:09 | 29.21231 | 130.81532 | 40017 ft | 431 kts | 239° |
| 2026-05-08 03:09 | 29.17787 | 130.75937 | 40022 ft | 432 kts | 239° |
| 2026-05-08 03:10 | 29.14309 | 130.70294 | 40019 ft | 433 kts | 239° |
| 2026-05-08 03:10 | 29.10845 | 130.64683 | 40027 ft | 433 kts | 240° |
| 2026-05-08 03:11 | 29.07363 | 130.59049 | 40025 ft | 434 kts | 239° |
| 2026-05-08 03:11 | 29.03884 | 130.53428 | 40024 ft | 434 kts | 239° |
| 2026-05-08 03:12 | 29.00386 | 130.47784 | 40026 ft | 434 kts | 240° |
| 2026-05-08 03:12 | 28.96881 | 130.42137 | 40028 ft | 435 kts | 240° |
| 2026-05-08 03:13 | 28.93401 | 130.36537 | 40031 ft | 435 kts | 240° |
| 2026-05-08 03:13 | 28.89884 | 130.30885 | 40028 ft | 435 kts | 239° |
| 2026-05-08 03:14 | 28.86391 | 130.25279 | 40029 ft | 435 kts | 239° |
| 2026-05-08 03:14 | 28.82863 | 130.19625 | 40031 ft | 436 kts | 239° |
| 2026-05-08 03:15 | 28.79354 | 130.14008 | 40030 ft | 436 kts | 239° |
| 2026-05-08 03:15 | 28.75824 | 130.08366 | 40029 ft | 436 kts | 239° |
| 2026-05-08 03:16 | 28.72311 | 130.02757 | 40034 ft | 436 kts | 239° |
| 2026-05-08 03:16 | 28.68774 | 129.97119 | 40030 ft | 436 kts | 239° |
| 2026-05-08 03:17 | 28.65258 | 129.91522 | 40027 ft | 436 kts | 239° |
| 2026-05-08 03:17 | 28.61715 | 129.85889 | 40031 ft | 437 kts | 239° |
| 2026-05-08 03:18 | 28.58174 | 129.80266 | 40028 ft | 437 kts | 239° |
| 2026-05-08 03:18 | 28.54647 | 129.74674 | 40019 ft | 437 kts | 239° |
| 2026-05-08 03:19 | 28.51088 | 129.69038 | 40018 ft | 437 kts | 239° |
| 2026-05-08 03:19 | 28.47551 | 129.63447 | 40016 ft | 438 kts | 239° |
| 2026-05-08 03:20 | 28.43904 | 129.57875 | 40040 ft | 441 kts | 236° |
| 2026-05-08 03:20 | 28.39925 | 129.52543 | 40016 ft | 442 kts | 235° |
| 2026-05-08 03:21 | 28.35921 | 129.47295 | 40038 ft | 442 kts | 235° |
| 2026-05-08 03:21 | 28.31877 | 129.42011 | 40039 ft | 443 kts | 235° |
| 2026-05-08 03:22 | 28.27828 | 129.36717 | 40043 ft | 443 kts | 235° |
| 2026-05-08 03:22 | 28.23808 | 129.31461 | 40041 ft | 443 kts | 235° |
| 2026-05-08 03:23 | 28.19751 | 129.26160 | 40041 ft | 443 kts | 235° |
| 2026-05-08 03:23 | 28.15723 | 129.20907 | 40041 ft | 444 kts | 235° |
| 2026-05-08 03:24 | 28.11662 | 129.15616 | 40042 ft | 444 kts | 235° |
| 2026-05-08 03:24 | 28.07608 | 129.10343 | 40045 ft | 444 kts | 235° |
| 2026-05-08 03:25 | 28.03558 | 129.05081 | 40043 ft | 445 kts | 235° |
| 2026-05-08 03:25 | 27.99472 | 128.99779 | 40043 ft | 445 kts | 235° |
| 2026-05-08 03:26 | 27.95418 | 128.94524 | 40045 ft | 445 kts | 235° |
| 2026-05-08 03:26 | 27.91327 | 128.89228 | 40044 ft | 446 kts | 235° |
| 2026-05-08 03:27 | 27.87254 | 128.83961 | 40042 ft | 446 kts | 235° |
| 2026-05-08 03:27 | 27.83158 | 128.78671 | 40045 ft | 446 kts | 235° |
| 2026-05-08 03:28 | 27.79078 | 128.73410 | 40044 ft | 447 kts | 235° |
| 2026-05-08 03:28 | 27.74993 | 128.68148 | 40043 ft | 447 kts | 235° |
| 2026-05-08 03:29 | 27.70865 | 128.62837 | 40034 ft | 448 kts | 234° |
| 2026-05-08 03:29 | 27.66770 | 128.57575 | 40033 ft | 448 kts | 234° |
| 2026-05-08 03:30 | 27.60616 | 128.49680 | 40033 ft | 448 kts | 234° |
| 2026-05-08 03:31 | 27.52387 | 128.39146 | 40033 ft | 448 kts | 234° |
| 2026-05-08 03:32 | 27.46206 | 128.31249 | 40039 ft | 448 kts | 234° |
| 2026-05-08 03:32 | 27.42754 | 128.26846 | 40038 ft | 449 kts | 234° |
| 2026-05-08 03:33 | 27.38612 | 128.21568 | 40035 ft | 449 kts | 234° |
| 2026-05-08 03:33 | 27.34483 | 128.16314 | 40041 ft | 449 kts | 234° |
| 2026-05-08 03:34 | 27.30331 | 128.11037 | 40039 ft | 450 kts | 234° |
| 2026-05-08 03:34 | 27.26205 | 128.05798 | 40039 ft | 450 kts | 234° |
| 2026-05-08 03:35 | 27.22041 | 128.00519 | 40037 ft | 450 kts | 234° |
| 2026-05-08 03:35 | 27.17873 | 127.95240 | 40030 ft | 451 kts | 234° |
| 2026-05-08 03:36 | 27.13724 | 127.89992 | 40041 ft | 451 kts | 234° |
| 2026-05-08 03:36 | 27.09552 | 127.84721 | 40038 ft | 451 kts | 234° |
| 2026-05-08 03:37 | 27.05389 | 127.79469 | 40034 ft | 451 kts | 234° |
| 2026-05-08 03:37 | 27.01198 | 127.74187 | 40034 ft | 452 kts | 234° |
| 2026-05-08 03:38 | 26.97034 | 127.68945 | 40046 ft | 452 kts | 234° |
| 2026-05-08 03:38 | 26.92842 | 127.63675 | 40058 ft | 452 kts | 234° |
| 2026-05-08 03:39 | 26.88637 | 127.58395 | 40078 ft | 453 kts | 234° |
| 2026-05-08 03:39 | 26.84476 | 127.53177 | 40086 ft | 453 kts | 234° |
| 2026-05-08 03:40 | 26.80261 | 127.47897 | 40082 ft | 453 kts | 234° |
| 2026-05-08 03:40 | 26.76076 | 127.42661 | 40062 ft | 453 kts | 234° |
| 2026-05-08 03:41 | 26.71873 | 127.37406 | 40041 ft | 453 kts | 234° |
| 2026-05-08 03:41 | 26.67676 | 127.32168 | 40027 ft | 454 kts | 234° |
| 2026-05-08 03:42 | 26.63447 | 127.26896 | 40026 ft | 454 kts | 234° |
| 2026-05-08 03:42 | 26.59241 | 127.21659 | 40022 ft | 454 kts | 234° |
| 2026-05-08 03:43 | 26.55008 | 127.16394 | 40018 ft | 454 kts | 234° |
| 2026-05-08 03:43 | 26.50771 | 127.11132 | 40034 ft | 455 kts | 234° |
| 2026-05-08 03:44 | 26.46569 | 127.05918 | 40029 ft | 455 kts | 234° |
| 2026-05-08 03:44 | 26.42325 | 127.00660 | 40019 ft | 455 kts | 234° |
| 2026-05-08 03:45 | 26.38077 | 126.95400 | 40022 ft | 455 kts | 234° |
| 2026-05-08 03:45 | 26.33856 | 126.90182 | 40022 ft | 455 kts | 234° |
| 2026-05-08 03:46 | 26.29626 | 126.84959 | 40021 ft | 455 kts | 234° |
| 2026-05-08 03:46 | 26.25368 | 126.79707 | 40018 ft | 456 kts | 234° |
| 2026-05-08 03:47 | 26.21106 | 126.74455 | 40013 ft | 456 kts | 233° |
| 2026-05-08 03:47 | 26.16862 | 126.69233 | 40017 ft | 456 kts | 233° |
| 2026-05-08 03:48 | 26.12585 | 126.63976 | 40021 ft | 457 kts | 233° |
| 2026-05-08 03:48 | 26.08328 | 126.58750 | 40017 ft | 457 kts | 233° |
| 2026-05-08 03:49 | 26.04070 | 126.53529 | 40020 ft | 457 kts | 233° |
| 2026-05-08 03:49 | 25.99789 | 126.48285 | 40017 ft | 458 kts | 233° |
| 2026-05-08 03:50 | 25.95517 | 126.43060 | 40017 ft | 458 kts | 233° |
| 2026-05-08 03:50 | 25.91222 | 126.37812 | 40018 ft | 458 kts | 233° |
| 2026-05-08 03:51 | 25.86943 | 126.32589 | 40017 ft | 458 kts | 233° |
| 2026-05-08 03:51 | 25.82636 | 126.27339 | 40018 ft | 458 kts | 233° |
| 2026-05-08 03:52 | 25.78355 | 126.22125 | 40017 ft | 459 kts | 233° |
| 2026-05-08 03:52 | 25.74049 | 126.16889 | 40015 ft | 459 kts | 233° |
| 2026-05-08 03:53 | 25.69757 | 126.11674 | 40016 ft | 459 kts | 233° |
| 2026-05-08 03:53 | 25.65425 | 126.06417 | 40015 ft | 460 kts | 233° |
| 2026-05-08 03:54 | 25.61117 | 126.01196 | 40017 ft | 460 kts | 233° |
| 2026-05-08 03:54 | 25.56808 | 125.95980 | 40012 ft | 460 kts | 233° |
| 2026-05-08 03:55 | 25.52472 | 125.90736 | 40016 ft | 461 kts | 233° |
| 2026-05-08 03:55 | 25.48152 | 125.85518 | 40016 ft | 461 kts | 233° |
| 2026-05-08 03:56 | 25.43823 | 125.80296 | 40014 ft | 461 kts | 233° |
| 2026-05-08 03:56 | 25.39477 | 125.75059 | 40015 ft | 461 kts | 233° |
| 2026-05-08 03:57 | 25.35134 | 125.69831 | 40008 ft | 461 kts | 232° |
| 2026-05-08 03:57 | 25.30807 | 125.64628 | 40023 ft | 461 kts | 232° |
| 2026-05-08 03:58 | 25.26476 | 125.59427 | 40020 ft | 461 kts | 232° |
| 2026-05-08 03:58 | 25.22159 | 125.54161 | 39998 ft | 461 kts | 233° |
| 2026-05-08 03:59 | 25.17901 | 125.48883 | 40013 ft | 461 kts | 233° |
| 2026-05-08 03:59 | 25.13609 | 125.43579 | 40011 ft | 462 kts | 233° |
| 2026-05-08 04:00 | 25.09335 | 125.38323 | 40005 ft | 462 kts | 232° |
| 2026-05-08 04:00 | 25.05009 | 125.33016 | 39999 ft | 463 kts | 232° |
| 2026-05-08 04:01 | 25.00721 | 125.27761 | 39999 ft | 464 kts | 232° |
| 2026-05-08 04:01 | 24.96391 | 125.22461 | 39996 ft | 464 kts | 232° |
| 2026-05-08 04:02 | 24.92077 | 125.17184 | 39992 ft | 465 kts | 232° |
| 2026-05-08 04:02 | 24.87725 | 125.11869 | 39992 ft | 466 kts | 232° |
| 2026-05-08 04:03 | 24.83391 | 125.06581 | 39991 ft | 466 kts | 232° |
| 2026-05-08 04:03 | 24.76845 | 124.98607 | 39998 ft | 467 kts | 232° |
| 2026-05-08 04:04 | 24.72498 | 124.93319 | 39997 ft | 468 kts | 232° |
| 2026-05-08 04:04 | 24.68136 | 124.88016 | 39995 ft | 469 kts | 232° |
| 2026-05-08 04:05 | 24.63745 | 124.82686 | 39998 ft | 470 kts | 232° |
| 2026-05-08 04:05 | 24.59374 | 124.77386 | 39996 ft | 470 kts | 232° |
| 2026-05-08 04:06 | 24.54954 | 124.72033 | 39995 ft | 471 kts | 232° |
| 2026-05-08 04:06 | 24.50552 | 124.66710 | 39993 ft | 472 kts | 232° |
| 2026-05-08 04:07 | 24.46147 | 124.61386 | 39997 ft | 472 kts | 232° |
| 2026-05-08 04:07 | 24.41713 | 124.56033 | 39997 ft | 473 kts | 232° |
| 2026-05-08 04:08 | 24.37293 | 124.50704 | 39998 ft | 473 kts | 232° |
| 2026-05-08 04:08 | 24.32848 | 124.45351 | 39994 ft | 474 kts | 232° |
| 2026-05-08 04:09 | 24.28421 | 124.40026 | 39998 ft | 474 kts | 232° |
| 2026-05-08 04:09 | 24.23996 | 124.34707 | 39998 ft | 474 kts | 232° |
| 2026-05-08 04:10 | 24.19527 | 124.29343 | 39996 ft | 474 kts | 232° |
| 2026-05-08 04:10 | 24.15089 | 124.24023 | 39995 ft | 475 kts | 232° |
| 2026-05-08 04:11 | 24.10633 | 124.18686 | 40000 ft | 475 kts | 232° |
| 2026-05-08 04:11 | 24.06184 | 124.13363 | 39996 ft | 475 kts | 232° |
| 2026-05-08 04:12 | 24.01696 | 124.08001 | 39996 ft | 475 kts | 232° |
| 2026-05-08 04:12 | 23.97244 | 124.02687 | 39998 ft | 475 kts | 232° |
| 2026-05-08 04:13 | 23.93187 | 123.97071 | 39994 ft | 471 kts | 239° |
| 2026-05-08 04:13 | 23.89458 | 123.91159 | 39994 ft | 471 kts | 240° |
| 2026-05-08 04:14 | 23.85806 | 123.85259 | 39995 ft | 471 kts | 240° |
| 2026-05-08 04:14 | 23.82120 | 123.79317 | 39997 ft | 471 kts | 240° |
| 2026-05-08 04:15 | 23.78446 | 123.73421 | 39991 ft | 471 kts | 239° |
| 2026-05-08 04:15 | 23.74740 | 123.67489 | 39994 ft | 471 kts | 239° |
| 2026-05-08 04:16 | 23.71054 | 123.61597 | 39989 ft | 472 kts | 239° |
| 2026-05-08 04:16 | 23.67365 | 123.55706 | 39990 ft | 472 kts | 239° |
| 2026-05-08 04:17 | 23.63651 | 123.49781 | 39993 ft | 472 kts | 239° |
| 2026-05-08 04:17 | 23.59954 | 123.43890 | 39989 ft | 472 kts | 239° |
| 2026-05-08 04:18 | 23.56228 | 123.37960 | 39992 ft | 472 kts | 239° |
| 2026-05-08 04:18 | 23.52523 | 123.32071 | 39990 ft | 473 kts | 239° |
| 2026-05-08 04:19 | 23.49429 | 123.27159 | 39988 ft | 473 kts | 239° |
| 2026-05-08 04:19 | 23.45689 | 123.21225 | 39988 ft | 473 kts | 239° |
| 2026-05-08 04:20 | 23.41969 | 123.15332 | 39988 ft | 473 kts | 239° |
| 2026-05-08 04:20 | 23.38233 | 123.09420 | 39988 ft | 473 kts | 239° |
| 2026-05-08 04:21 | 23.34510 | 123.03535 | 39992 ft | 474 kts | 239° |
| 2026-05-08 04:21 | 23.30737 | 122.97638 | 39985 ft | 475 kts | 237° |
| 2026-05-08 04:22 | 23.26669 | 122.91994 | 39986 ft | 476 kts | 234° |
| 2026-05-08 04:22 | 23.22498 | 122.86410 | 39985 ft | 476 kts | 235° |
| 2026-05-08 04:23 | 23.18359 | 122.80784 | 39985 ft | 476 kts | 235° |
| 2026-05-08 04:23 | 23.14252 | 122.75136 | 39984 ft | 476 kts | 236° |
| 2026-05-08 04:24 | 23.10165 | 122.69502 | 39982 ft | 476 kts | 236° |
| 2026-05-08 04:24 | 23.06069 | 122.63866 | 39983 ft | 476 kts | 235° |
| 2026-05-08 04:25 | 23.01979 | 122.58247 | 39984 ft | 476 kts | 235° |
| 2026-05-08 04:25 | 22.97867 | 122.52606 | 39979 ft | 476 kts | 235° |
| 2026-05-08 04:26 | 22.93744 | 122.46956 | 39979 ft | 476 kts | 235° |
| 2026-05-08 04:26 | 22.89647 | 122.41346 | 39977 ft | 476 kts | 235° |
| 2026-05-08 04:27 | 22.85542 | 122.35733 | 39981 ft | 476 kts | 235° |
| 2026-05-08 04:27 | 22.81421 | 122.30103 | 39977 ft | 476 kts | 235° |
| 2026-05-08 04:28 | 22.77294 | 122.24471 | 39974 ft | 476 kts | 235° |
| 2026-05-08 04:28 | 22.73192 | 122.18880 | 39974 ft | 476 kts | 235° |
| 2026-05-08 04:29 | 22.69060 | 122.13254 | 39976 ft | 476 kts | 235° |
| 2026-05-08 04:29 | 22.64951 | 122.07665 | 39971 ft | 476 kts | 235° |
| 2026-05-08 04:30 | 22.60821 | 122.02054 | 39973 ft | 476 kts | 235° |
| 2026-05-08 04:30 | 22.56709 | 121.96473 | 39964 ft | 476 kts | 235° |
| 2026-05-08 04:31 | 22.52563 | 121.90852 | 39965 ft | 476 kts | 235° |
| 2026-05-08 04:31 | 22.48454 | 121.85286 | 39958 ft | 476 kts | 235° |
| 2026-05-08 04:32 | 22.44310 | 121.79680 | 39952 ft | 476 kts | 235° |
| 2026-05-08 04:32 | 22.40201 | 121.74127 | 39952 ft | 476 kts | 235° |
| 2026-05-08 04:33 | 22.36058 | 121.68534 | 39945 ft | 476 kts | 235° |
| 2026-05-08 04:33 | 22.31913 | 121.62946 | 39944 ft | 475 kts | 235° |
| 2026-05-08 04:34 | 22.27787 | 121.57376 | 39947 ft | 475 kts | 235° |
| 2026-05-08 04:34 | 22.23678 | 121.51836 | 39948 ft | 475 kts | 235° |
| 2026-05-08 04:35 | 22.19538 | 121.46262 | 39946 ft | 475 kts | 234° |
| 2026-05-08 04:35 | 22.15392 | 121.40688 | 39950 ft | 475 kts | 234° |
| 2026-05-08 04:36 | 22.11258 | 121.35153 | 39952 ft | 475 kts | 234° |
| 2026-05-08 04:36 | 22.07100 | 121.29582 | 39951 ft | 475 kts | 234° |
| 2026-05-08 04:37 | 22.02972 | 121.24059 | 39957 ft | 475 kts | 234° |
| 2026-05-08 04:37 | 21.99463 | 121.18124 | 39955 ft | 468 kts | 249° |
| 2026-05-08 04:38 | 21.97602 | 121.11479 | 39953 ft | 463 kts | 260° |
| 2026-05-08 04:38 | 21.96355 | 121.04658 | 39955 ft | 463 kts | 262° |
| 2026-05-08 04:39 | 21.95183 | 120.97851 | 39957 ft | 463 kts | 262° |
| 2026-05-08 04:39 | 21.93981 | 120.91023 | 39958 ft | 464 kts | 261° |
| 2026-05-08 04:40 | 21.92750 | 120.84183 | 39957 ft | 464 kts | 261° |
| 2026-05-08 04:40 | 21.91381 | 120.77404 | 39956 ft | 465 kts | 259° |
| 2026-05-08 04:41 | 21.89847 | 120.70618 | 39955 ft | 465 kts | 258° |
| 2026-05-08 04:41 | 21.88334 | 120.63866 | 39954 ft | 465 kts | 259° |
| 2026-05-08 04:42 | 21.86838 | 120.57062 | 39957 ft | 470 kts | 259° |
| 2026-05-08 04:42 | 21.85330 | 120.50145 | 39947 ft | 476 kts | 259° |
| 2026-05-08 04:43 | 21.83818 | 120.43231 | 39952 ft | 475 kts | 259° |
| 2026-05-08 04:43 | 21.82298 | 120.36303 | 39952 ft | 475 kts | 259° |
| 2026-05-08 04:44 | 21.80784 | 120.29415 | 39946 ft | 475 kts | 259° |
| 2026-05-08 04:44 | 21.79256 | 120.22482 | 39948 ft | 475 kts | 259° |
| 2026-05-08 04:45 | 21.77734 | 120.15588 | 39949 ft | 475 kts | 259° |
| 2026-05-08 04:45 | 21.76201 | 120.08658 | 39954 ft | 475 kts | 259° |
| 2026-05-08 04:46 | 21.74671 | 120.01760 | 39951 ft | 475 kts | 259° |
| 2026-05-08 04:46 | 21.73135 | 119.94865 | 39951 ft | 475 kts | 259° |
| 2026-05-08 04:47 | 21.71594 | 119.87940 | 39957 ft | 475 kts | 259° |
| 2026-05-08 04:47 | 21.70061 | 119.81056 | 39952 ft | 475 kts | 259° |
| 2026-05-08 04:48 | 21.68513 | 119.74128 | 39950 ft | 475 kts | 259° |
| 2026-05-08 04:48 | 21.66970 | 119.67241 | 39951 ft | 475 kts | 259° |
| 2026-05-08 04:49 | 21.65416 | 119.60318 | 39958 ft | 475 kts | 259° |
| 2026-05-08 04:49 | 21.63875 | 119.53468 | 39959 ft | 474 kts | 259° |
| 2026-05-08 04:50 | 21.62316 | 119.46553 | 39959 ft | 474 kts | 259° |
| 2026-05-08 04:50 | 21.60756 | 119.39649 | 39956 ft | 474 kts | 259° |
| 2026-05-08 04:51 | 21.59205 | 119.32795 | 39955 ft | 474 kts | 259° |
| 2026-05-08 04:51 | 21.57648 | 119.25927 | 39955 ft | 474 kts | 259° |
| 2026-05-08 04:52 | 21.56085 | 119.19053 | 39957 ft | 474 kts | 259° |
| 2026-05-08 04:52 | 21.54512 | 119.12142 | 39952 ft | 474 kts | 259° |
| 2026-05-08 04:53 | 21.52949 | 119.05295 | 39956 ft | 474 kts | 259° |
| 2026-05-08 04:53 | 21.51373 | 118.98402 | 39955 ft | 474 kts | 259° |
| 2026-05-08 04:54 | 21.49796 | 118.91515 | 39954 ft | 474 kts | 259° |
| 2026-05-08 04:54 | 21.48225 | 118.84673 | 39953 ft | 475 kts | 259° |
| 2026-05-08 04:55 | 21.46634 | 118.77760 | 39953 ft | 475 kts | 259° |
| 2026-05-08 04:55 | 21.45053 | 118.70898 | 39955 ft | 475 kts | 259° |
| 2026-05-08 04:56 | 21.43466 | 118.64026 | 39955 ft | 476 kts | 259° |
| 2026-05-08 04:56 | 21.41875 | 118.57150 | 39952 ft | 476 kts | 259° |
| 2026-05-08 04:57 | 21.40276 | 118.50254 | 39951 ft | 476 kts | 259° |
| 2026-05-08 04:57 | 21.38671 | 118.43347 | 39953 ft | 477 kts | 259° |
| 2026-05-08 04:58 | 21.37061 | 118.36428 | 39956 ft | 477 kts | 259° |
| 2026-05-08 04:58 | 21.35453 | 118.29540 | 39954 ft | 477 kts | 259° |
| 2026-05-08 04:59 | 21.33846 | 118.22669 | 39949 ft | 477 kts | 259° |
| 2026-05-08 04:59 | 21.32223 | 118.15740 | 39953 ft | 477 kts | 259° |
| 2026-05-08 05:00 | 21.30607 | 118.08860 | 39953 ft | 477 kts | 259° |
| 2026-05-08 05:00 | 21.29001 | 118.02018 | 39950 ft | 471 kts | 258° |
| 2026-05-08 05:01 | 21.27399 | 117.95225 | 39951 ft | 467 kts | 258° |
| 2026-05-08 05:01 | 21.25811 | 117.88497 | 39952 ft | 467 kts | 258° |
| 2026-05-08 05:02 | 21.24209 | 117.81722 | 39950 ft | 467 kts | 258° |
| 2026-05-08 05:02 | 21.22610 | 117.74974 | 39948 ft | 468 kts | 258° |
| 2026-05-08 05:03 | 21.21013 | 117.68246 | 39951 ft | 468 kts | 258° |
| 2026-05-08 05:03 | 21.19399 | 117.61464 | 39952 ft | 468 kts | 258° |
| 2026-05-08 05:04 | 21.17791 | 117.54719 | 39949 ft | 468 kts | 258° |
| 2026-05-08 05:04 | 21.16708 | 117.47892 | 39953 ft | 465 kts | 269° |
| 2026-05-08 05:05 | 21.16513 | 117.41001 | 39953 ft | 464 kts | 271° |
| 2026-05-08 05:05 | 21.16450 | 117.34058 | 39952 ft | 465 kts | 271° |
| 2026-05-08 05:06 | 21.16391 | 117.27150 | 39948 ft | 465 kts | 271° |
| 2026-05-08 05:06 | 21.16248 | 117.20209 | 39949 ft | 466 kts | 267° |
| 2026-05-08 05:07 | 21.14836 | 117.13462 | 39952 ft | 471 kts | 251° |
| 2026-05-08 05:07 | 21.12100 | 117.07027 | 39952 ft | 474 kts | 247° |
| 2026-05-08 05:08 | 21.09173 | 117.00717 | 39948 ft | 474 kts | 246° |
| 2026-05-08 05:08 | 21.06238 | 116.94415 | 39951 ft | 475 kts | 246° |
| 2026-05-08 05:09 | 21.03804 | 116.89140 | 39951 ft | 475 kts | 246° |
| 2026-05-08 05:09 | 21.00880 | 116.82777 | 39948 ft | 475 kts | 246° |
| 2026-05-08 05:10 | 20.96514 | 116.73275 | 39945 ft | 475 kts | 246° |
| 2026-05-08 05:11 | 20.93590 | 116.66925 | 39946 ft | 475 kts | 246° |
| 2026-05-08 05:11 | 20.90678 | 116.60609 | 39944 ft | 476 kts | 246° |
| 2026-05-08 05:12 | 20.87732 | 116.54230 | 39943 ft | 476 kts | 246° |
| 2026-05-08 05:12 | 20.84812 | 116.47912 | 39954 ft | 476 kts | 246° |
| 2026-05-08 05:13 | 20.81882 | 116.41578 | 39956 ft | 476 kts | 246° |
| 2026-05-08 05:13 | 20.78927 | 116.35202 | 39951 ft | 477 kts | 246° |
| 2026-05-08 05:14 | 20.75989 | 116.28867 | 39955 ft | 477 kts | 246° |
| 2026-05-08 05:14 | 20.73047 | 116.22531 | 39953 ft | 477 kts | 246° |
| 2026-05-08 05:15 | 20.70098 | 116.16189 | 39956 ft | 477 kts | 246° |
| 2026-05-08 05:15 | 20.67132 | 116.09819 | 39952 ft | 477 kts | 246° |
| 2026-05-08 05:16 | 20.64189 | 116.03504 | 39954 ft | 478 kts | 246° |
| 2026-05-08 05:16 | 20.61222 | 115.97145 | 39949 ft | 478 kts | 246° |
| 2026-05-08 05:17 | 20.58245 | 115.90771 | 39952 ft | 478 kts | 246° |
| 2026-05-08 05:17 | 20.55283 | 115.84438 | 39949 ft | 479 kts | 246° |
| 2026-05-08 05:18 | 20.52317 | 115.78104 | 39953 ft | 479 kts | 246° |
| 2026-05-08 05:18 | 20.49327 | 115.71726 | 39952 ft | 479 kts | 246° |
| 2026-05-08 05:19 | 20.46353 | 115.65391 | 39953 ft | 479 kts | 246° |
| 2026-05-08 05:19 | 20.43366 | 115.59034 | 39956 ft | 480 kts | 246° |
| 2026-05-08 05:20 | 20.40365 | 115.52655 | 39954 ft | 480 kts | 246° |
| 2026-05-08 05:20 | 20.37377 | 115.46310 | 39950 ft | 480 kts | 246° |
| 2026-05-08 05:21 | 20.34392 | 115.39978 | 39947 ft | 480 kts | 246° |
| 2026-05-08 05:21 | 20.31389 | 115.33609 | 39956 ft | 481 kts | 246° |
| 2026-05-08 05:22 | 20.28370 | 115.27226 | 39957 ft | 481 kts | 246° |
| 2026-05-08 05:22 | 20.25371 | 115.20891 | 39957 ft | 481 kts | 246° |
| 2026-05-08 05:23 | 20.22346 | 115.14505 | 39953 ft | 481 kts | 246° |
| 2026-05-08 05:23 | 20.19338 | 115.08161 | 39952 ft | 482 kts | 246° |
| 2026-05-08 05:24 | 20.16315 | 115.01796 | 39952 ft | 482 kts | 246° |
| 2026-05-08 05:24 | 20.13288 | 114.95428 | 39952 ft | 485 kts | 246° |
| 2026-05-08 05:25 | 20.10231 | 114.89003 | 39949 ft | 486 kts | 246° |
| 2026-05-08 05:25 | 20.07181 | 114.82602 | 39953 ft | 486 kts | 246° |
| 2026-05-08 05:26 | 20.04118 | 114.76182 | 39952 ft | 486 kts | 246° |
| 2026-05-08 05:26 | 20.01066 | 114.69790 | 39953 ft | 486 kts | 246° |
| 2026-05-08 05:27 | 19.97995 | 114.63365 | 39951 ft | 486 kts | 246° |
| 2026-05-08 05:27 | 19.94937 | 114.56976 | 39951 ft | 486 kts | 246° |
| 2026-05-08 05:28 | 19.91861 | 114.50558 | 39952 ft | 486 kts | 246° |
| 2026-05-08 05:28 | 19.88808 | 114.44192 | 39949 ft | 486 kts | 246° |
| 2026-05-08 05:29 | 19.85722 | 114.37767 | 39950 ft | 486 kts | 246° |
| 2026-05-08 05:29 | 19.82645 | 114.31366 | 39952 ft | 486 kts | 246° |
| 2026-05-08 05:30 | 19.79572 | 114.24982 | 39951 ft | 486 kts | 246° |
| 2026-05-08 05:30 | 19.76506 | 114.18620 | 39949 ft | 486 kts | 246° |
| 2026-05-08 05:31 | 19.73414 | 114.12209 | 39949 ft | 486 kts | 246° |
| 2026-05-08 05:31 | 19.70325 | 114.05813 | 39952 ft | 486 kts | 246° |
| 2026-05-08 05:32 | 19.67250 | 113.99453 | 39951 ft | 487 kts | 246° |
| 2026-05-08 05:32 | 19.64151 | 113.93050 | 39952 ft | 487 kts | 246° |
| 2026-05-08 05:33 | 19.61846 | 113.88291 | 39952 ft | 487 kts | 245° |
| 2026-05-08 05:33 | 19.58755 | 113.81917 | 39949 ft | 487 kts | 245° |
| 2026-05-08 05:34 | 19.55648 | 113.75516 | 39953 ft | 487 kts | 245° |
| 2026-05-08 05:34 | 19.52539 | 113.69121 | 39950 ft | 487 kts | 245° |
| 2026-05-08 05:35 | 19.49448 | 113.62767 | 39949 ft | 488 kts | 245° |
| 2026-05-08 05:35 | 19.46335 | 113.56377 | 39961 ft | 488 kts | 245° |
| 2026-05-08 05:36 | 19.40249 | 113.43901 | 39947 ft | 488 kts | 245° |
| 2026-05-08 05:36 | 19.34024 | 113.31172 | 39943 ft | 488 kts | 244° |
| 2026-05-08 05:37 | 19.27778 | 113.18425 | 39942 ft | 488 kts | 244° |
| 2026-05-08 05:37 | 19.21498 | 113.05636 | 39958 ft | 488 kts | 244° |
| 2026-05-08 05:38 | 19.15226 | 112.92893 | 39959 ft | 487 kts | 244° |
| 2026-05-08 05:38 | 19.08969 | 112.80207 | 39952 ft | 488 kts | 244° |
| 2026-05-08 05:39 | 19.02723 | 112.67570 | 39951 ft | 488 kts | 244° |
| 2026-05-08 05:39 | 18.96411 | 112.54829 | 39950 ft | 488 kts | 244° |
| 2026-05-08 05:40 | 18.89385 | 112.42581 | 39946 ft | 491 kts | 228° |
| 2026-05-08 05:40 | 18.78624 | 112.33765 | 39949 ft | 493 kts | 216° |
| 2026-05-08 05:41 | 18.67497 | 112.25245 | 39944 ft | 493 kts | 224° |
| 2026-05-08 05:41 | 18.63172 | 112.19819 | 39944 ft | 490 kts | 236° |
| 2026-05-08 05:41 | 18.59345 | 112.13873 | 39945 ft | 490 kts | 238° |
| 2026-05-08 05:42 | 18.51827 | 112.01832 | 39941 ft | 490 kts | 237° |
| 2026-05-08 05:42 | 18.44298 | 111.89940 | 39940 ft | 491 kts | 237° |
| 2026-05-08 05:43 | 18.36144 | 111.77103 | 39948 ft | 491 kts | 237° |
| 2026-05-08 05:43 | 18.20900 | 111.53167 | 39945 ft | 492 kts | 237° |
| 2026-05-08 05:44 | 18.05669 | 111.29339 | 39943 ft | 494 kts | 237° |
| 2026-05-08 05:44 | 17.90244 | 111.05295 | 39941 ft | 494 kts | 237° |
| 2026-05-08 05:45 | 17.74907 | 110.81475 | 39942 ft | 495 kts | 237° |
| 2026-05-08 05:45 | 17.59391 | 110.57464 | 39942 ft | 496 kts | 237° |
| 2026-05-08 05:46 | 17.43908 | 110.33591 | 39943 ft | 496 kts | 238° |
| 2026-05-08 05:46 | 17.28546 | 110.09653 | 39938 ft | 497 kts | 238° |
| 2026-05-08 05:47 | 17.13121 | 109.85643 | 39940 ft | 498 kts | 238° |
| 2026-05-08 05:47 | 16.97612 | 109.61585 | 39939 ft | 498 kts | 238° |
| 2026-05-08 05:48 | 16.82155 | 109.37699 | 39940 ft | 498 kts | 238° |
| 2026-05-08 05:48 | 16.66624 | 109.13713 | 39935 ft | 497 kts | 238° |
| 2026-05-08 05:49 | 16.51115 | 108.89979 | 39936 ft | 496 kts | 237° |
| 2026-05-08 05:49 | 16.35426 | 108.66497 | 39933 ft | 496 kts | 237° |
| 2026-05-08 05:50 | 16.20027 | 108.42619 | 39932 ft | 496 kts | 238° |
| 2026-05-08 05:50 | 16.05112 | 108.18568 | 39938 ft | 492 kts | 251° |
| 2026-05-08 05:51 | 15.97296 | 107.91343 | 39930 ft | 490 kts | 256° |
| 2026-05-08 05:51 | 15.89862 | 107.64186 | 39932 ft | 489 kts | 256° |
| 2026-05-08 05:52 | 15.82059 | 107.37058 | 39947 ft | 489 kts | 255° |
| 2026-05-08 05:52 | 15.74668 | 107.10012 | 39935 ft | 487 kts | 260° |
| 2026-05-08 05:53 | 15.68903 | 106.82442 | 39893 ft | 487 kts | 259° |
| 2026-05-08 05:53 | 15.62944 | 106.55134 | 39879 ft | 487 kts | 259° |
| 2026-05-08 05:54 | 15.56929 | 106.27717 | 39893 ft | 487 kts | 258° |
| 2026-05-08 05:54 | 15.50872 | 106.00274 | 39896 ft | 486 kts | 258° |
| 2026-05-08 05:55 | 15.44838 | 105.73105 | 39895 ft | 485 kts | 258° |
| 2026-05-08 05:55 | 15.38594 | 105.45805 | 39907 ft | 486 kts | 257° |
| 2026-05-08 05:56 | 15.32165 | 105.18710 | 39917 ft | 487 kts | 257° |
| 2026-05-08 05:56 | 15.26754 | 104.95971 | 39912 ft | 488 kts | 256° |
| 2026-05-08 05:57 | 15.22628 | 104.63579 | 39922 ft | 490 kts | 265° |
| 2026-05-08 05:57 | 15.20678 | 104.40023 | 39933 ft | 492 kts | 265° |
| 2026-05-08 05:58 | 15.18300 | 104.11784 | 39933 ft | 493 kts | 265° |
| 2026-05-08 05:58 | 15.15888 | 103.83565 | 39930 ft | 493 kts | 265° |
| 2026-05-08 05:59 | 15.13398 | 103.63496 | 39926 ft | 494 kts | 261° |
| 2026-05-08 05:59 | 15.11960 | 103.53798 | 39921 ft | 493 kts | 262° |
| 2026-05-08 06:00 | 15.10957 | 103.46764 | 39916 ft | 493 kts | 262° |
| 2026-05-08 06:00 | 15.09971 | 103.39778 | 39914 ft | 493 kts | 262° |
| 2026-05-08 06:01 | 15.08971 | 103.32722 | 39914 ft | 493 kts | 262° |
| 2026-05-08 06:01 | 15.07974 | 103.25723 | 39913 ft | 493 kts | 262° |
| 2026-05-08 06:02 | 15.06968 | 103.18680 | 39911 ft | 494 kts | 262° |
| 2026-05-08 06:02 | 15.05964 | 103.11670 | 39915 ft | 494 kts | 262° |
| 2026-05-08 06:03 | 15.04957 | 103.04652 | 39913 ft | 495 kts | 262° |
| 2026-05-08 06:03 | 15.03941 | 102.97588 | 39917 ft | 496 kts | 262° |
| 2026-05-08 06:04 | 15.02918 | 102.90508 | 39916 ft | 496 kts | 262° |
| 2026-05-08 06:04 | 15.01901 | 102.83476 | 39917 ft | 496 kts | 262° |
| 2026-05-08 06:05 | 15.00876 | 102.76402 | 39916 ft | 497 kts | 262° |
| 2026-05-08 06:05 | 14.99854 | 102.69364 | 39916 ft | 497 kts | 262° |
| 2026-05-08 06:06 | 14.98819 | 102.62259 | 39912 ft | 498 kts | 262° |
| 2026-05-08 06:06 | 14.97789 | 102.55201 | 39912 ft | 498 kts | 262° |
| 2026-05-08 06:07 | 14.96758 | 102.48150 | 39768 ft | 497 kts | 262° |
| 2026-05-08 06:07 | 14.96240 | 102.44612 | 39529 ft | 498 kts | 262° |
| 2026-05-08 06:07 | 14.95719 | 102.41054 | 39297 ft | 500 kts | 262° |
| 2026-05-08 06:07 | 14.95196 | 102.37493 | 38935 ft | 498 kts | 262° |
| 2026-05-08 06:08 | 14.94675 | 102.33947 | 38304 ft | 498 kts | 262° |
| 2026-05-08 06:08 | 14.94160 | 102.30444 | 37605 ft | 499 kts | 262° |
| 2026-05-08 06:08 | 14.93639 | 102.26906 | 36924 ft | 499 kts | 262° |
| 2026-05-08 06:08 | 14.93112 | 102.23337 | 36228 ft | 500 kts | 262° |
| 2026-05-08 06:09 | 14.92587 | 102.19778 | 35520 ft | 501 kts | 262° |
| 2026-05-08 06:09 | 14.92049 | 102.16207 | 34780 ft | 503 kts | 261° |
| 2026-05-08 06:09 | 14.91110 | 102.12746 | 34027 ft | 506 kts | 249° |
| 2026-05-08 06:09 | 14.89770 | 102.09348 | 33094 ft | 510 kts | 247° |
| 2026-05-08 06:10 | 14.88358 | 102.05955 | 32184 ft | 513 kts | 246° |
| 2026-05-08 06:10 | 14.86932 | 102.02554 | 31298 ft | 516 kts | 246° |
| 2026-05-08 06:10 | 14.85523 | 101.99200 | 30680 ft | 513 kts | 246° |
| 2026-05-08 06:10 | 14.84101 | 101.95816 | 30030 ft | 509 kts | 246° |
| 2026-05-08 06:11 | 14.82691 | 101.92462 | 29323 ft | 506 kts | 246° |
| 2026-05-08 06:11 | 14.81308 | 101.89173 | 28668 ft | 501 kts | 246° |
| 2026-05-08 06:11 | 14.79922 | 101.85879 | 28038 ft | 496 kts | 246° |
| 2026-05-08 06:11 | 14.78549 | 101.82617 | 27409 ft | 492 kts | 245° |
| 2026-05-08 06:12 | 14.77187 | 101.79385 | 26795 ft | 487 kts | 245° |
| 2026-05-08 06:12 | 14.75841 | 101.76191 | 26183 ft | 483 kts | 245° |
| 2026-05-08 06:12 | 14.74517 | 101.73053 | 25587 ft | 479 kts | 245° |
| 2026-05-08 06:12 | 14.73190 | 101.69907 | 24970 ft | 475 kts | 245° |
| 2026-05-08 06:13 | 14.71871 | 101.66781 | 24360 ft | 471 kts | 245° |
| 2026-05-08 06:13 | 14.70566 | 101.63691 | 23755 ft | 467 kts | 245° |
| 2026-05-08 06:13 | 14.69271 | 101.60626 | 23082 ft | 463 kts | 245° |
| 2026-05-08 06:13 | 14.68006 | 101.57632 | 22446 ft | 458 kts | 245° |
| 2026-05-08 06:14 | 14.66738 | 101.54632 | 21832 ft | 452 kts | 245° |
| 2026-05-08 06:14 | 14.65485 | 101.51671 | 21225 ft | 446 kts | 245° |
| 2026-05-08 06:14 | 14.64247 | 101.48744 | 20632 ft | 441 kts | 245° |
| 2026-05-08 06:14 | 14.63019 | 101.45844 | 20012 ft | 437 kts | 245° |
| 2026-05-08 06:15 | 14.61731 | 101.43062 | 19392 ft | 432 kts | 239° |
| 2026-05-08 06:15 | 14.60240 | 101.40390 | 18805 ft | 427 kts | 238° |
| 2026-05-08 06:15 | 14.58720 | 101.37761 | 18196 ft | 424 kts | 237° |
| 2026-05-08 06:15 | 14.57211 | 101.35155 | 17515 ft | 420 kts | 238° |
| 2026-05-08 06:16 | 14.55740 | 101.32607 | 17187 ft | 397 kts | 238° |
| 2026-05-08 06:16 | 14.54379 | 101.30241 | 17050 ft | 373 kts | 238° |
| 2026-05-08 06:16 | 14.53090 | 101.28004 | 16923 ft | 361 kts | 238° |
| 2026-05-08 06:16 | 14.51821 | 101.25805 | 16676 ft | 353 kts | 237° |
| 2026-05-08 06:17 | 14.49610 | 101.21283 | 15768 ft | 353 kts | 255° |
| 2026-05-08 06:17 | 14.49145 | 101.18782 | 15473 ft | 362 kts | 260° |
| 2026-05-08 06:17 | 14.48763 | 101.16195 | 15190 ft | 366 kts | 260° |
| 2026-05-08 06:18 | 14.48382 | 101.13599 | 14858 ft | 364 kts | 260° |
| 2026-05-08 06:18 | 14.47996 | 101.11017 | 14540 ft | 362 kts | 260° |
| 2026-05-08 06:18 | 14.47607 | 101.08450 | 14229 ft | 361 kts | 260° |
| 2026-05-08 06:18 | 14.47224 | 101.05934 | 13953 ft | 359 kts | 260° |
| 2026-05-08 06:19 | 14.46834 | 101.03387 | 13660 ft | 357 kts | 260° |
| 2026-05-08 06:19 | 14.46446 | 101.00861 | 13172 ft | 352 kts | 261° |
| 2026-05-08 06:19 | 14.46070 | 100.98395 | 12808 ft | 345 kts | 261° |
| 2026-05-08 06:19 | 14.45708 | 100.96024 | 12412 ft | 324 kts | 261° |
| 2026-05-08 06:20 | 14.45364 | 100.93778 | 12161 ft | 314 kts | 261° |
| 2026-05-08 06:20 | 14.45020 | 100.91549 | 11909 ft | 313 kts | 260° |
| 2026-05-08 06:20 | 14.44680 | 100.89356 | 11486 ft | 313 kts | 261° |
| 2026-05-08 06:20 | 14.44338 | 100.87130 | 11100 ft | 311 kts | 261° |
| 2026-05-08 06:21 | 14.44000 | 100.84929 | 10767 ft | 308 kts | 261° |
| 2026-05-08 06:21 | 14.43666 | 100.82755 | 10543 ft | 307 kts | 261° |
| 2026-05-08 06:21 | 14.43334 | 100.80602 | 10261 ft | 306 kts | 261° |
| 2026-05-08 06:21 | 14.42998 | 100.78431 | 9946 ft | 304 kts | 261° |
| 2026-05-08 06:22 | 14.42664 | 100.76275 | 9612 ft | 303 kts | 261° |
| 2026-05-08 06:22 | 14.42334 | 100.74134 | 9280 ft | 301 kts | 261° |
| 2026-05-08 06:22 | 14.42006 | 100.72001 | 8950 ft | 300 kts | 261° |
| 2026-05-08 06:22 | 14.41682 | 100.69906 | 8672 ft | 299 kts | 261° |
| 2026-05-08 06:23 | 14.41354 | 100.67788 | 8395 ft | 298 kts | 261° |
| 2026-05-08 06:23 | 14.41027 | 100.65684 | 8114 ft | 296 kts | 261° |
| 2026-05-08 06:23 | 14.40607 | 100.63619 | 7868 ft | 290 kts | 250° |
| 2026-05-08 06:23 | 14.39534 | 100.61964 | 7656 ft | 273 kts | 218° |
| 2026-05-08 06:24 | 14.37869 | 100.61193 | 7374 ft | 261 kts | 185° |
| 2026-05-08 06:24 | 14.36095 | 100.61408 | 7077 ft | 255 kts | 162° |
| 2026-05-08 06:24 | 14.34407 | 100.61936 | 6829 ft | 251 kts | 161° |
| 2026-05-08 06:24 | 14.32742 | 100.62454 | 6622 ft | 248 kts | 162° |
| 2026-05-08 06:25 | 14.31107 | 100.62945 | 6373 ft | 246 kts | 162° |
| 2026-05-08 06:25 | 14.29454 | 100.63429 | 6139 ft | 246 kts | 162° |
| 2026-05-08 06:25 | 14.27818 | 100.63901 | 5990 ft | 239 kts | 162° |
| 2026-05-08 06:25 | 14.26265 | 100.64348 | 5873 ft | 229 kts | 162° |
| 2026-05-08 06:26 | 14.24776 | 100.64775 | 5675 ft | 215 kts | 163° |
| 2026-05-08 06:26 | 14.23364 | 100.65177 | 5475 ft | 207 kts | 162° |
| 2026-05-08 06:26 | 14.21983 | 100.65571 | 5267 ft | 203 kts | 162° |
| 2026-05-08 06:26 | 14.20644 | 100.65953 | 5020 ft | 201 kts | 162° |
| 2026-05-08 06:27 | 14.19293 | 100.66340 | 4751 ft | 201 kts | 163° |
| 2026-05-08 06:27 | 14.17945 | 100.66727 | 4478 ft | 201 kts | 163° |
| 2026-05-08 06:27 | 14.16588 | 100.67113 | 4160 ft | 203 kts | 163° |
| 2026-05-08 06:27 | 14.15243 | 100.67501 | 3881 ft | 202 kts | 163° |
| 2026-05-08 06:28 | 14.13887 | 100.67888 | 3601 ft | 202 kts | 163° |
| 2026-05-08 06:28 | 14.12533 | 100.68273 | 3314 ft | 201 kts | 164° |
| 2026-05-08 06:28 | 14.11181 | 100.68657 | 3061 ft | 199 kts | 164° |
| 2026-05-08 06:28 | 14.09864 | 100.69031 | 2996 ft | 194 kts | 164° |
| 2026-05-08 06:29 | 14.08576 | 100.69385 | 2995 ft | 194 kts | 166° |
| 2026-05-08 06:29 | 14.07230 | 100.69382 | 2998 ft | 194 kts | 192° |
| 2026-05-08 06:29 | 14.06004 | 100.68841 | 2897 ft | 188 kts | 211° |
| 2026-05-08 06:29 | 14.04893 | 100.68142 | 2654 ft | 185 kts | 210° |
| 2026-05-08 06:30 | 14.03784 | 100.67522 | 2407 ft | 182 kts | 207° |
| 2026-05-08 06:30 | 14.02694 | 100.66920 | 2167 ft | 173 kts | 208° |
| 2026-05-08 06:30 | 14.01670 | 100.66338 | 1964 ft | 164 kts | 208° |
| 2026-05-08 06:30 | 14.00686 | 100.65782 | 1748 ft | 158 kts | 208° |
| 2026-05-08 06:31 | 13.99723 | 100.65241 | 1563 ft | 157 kts | 208° |
| 2026-05-08 06:31 | 13.98790 | 100.64715 | 1359 ft | 150 kts | 208° |
| 2026-05-08 06:31 | 13.97898 | 100.64213 | 1154 ft | 142 kts | 208° |
| 2026-05-08 06:31 | 13.97043 | 100.63739 | 972 ft | 137 kts | 206° |
| 2026-05-08 06:32 | 13.96211 | 100.63281 | 825 ft | 137 kts | 208° |
| 2026-05-08 06:32 | 13.95384 | 100.62786 | 671 ft | 137 kts | 210° |
| 2026-05-08 06:32 | 13.94547 | 100.62306 | 483 ft | 138 kts | 207° |
| 2026-05-08 06:32 | 13.93707 | 100.61834 | 307 ft | 137 kts | 208° |
| 2026-05-08 06:33 | 13.92867 | 100.61367 | 124 ft | 137 kts | 207° |
| 2026-05-08 06:33 | 13.92086 | 100.60931 | 32 ft | 133 kts | 208° |
| 2026-05-08 06:33 | 13.91436 | 100.60568 | 21 ft | 66 kts | 208° |
| 2026-05-08 06:33 | 13.91172 | 100.60391 | 27 ft | 41 kts | 226° |
| 2026-05-08 06:34 | 13.91105 | 100.60302 | 26 ft | 11 kts | 238° |
| 2026-05-08 06:34 | 13.91104 | 100.60232 | 26 ft | 10 kts | 311° |
| 2026-05-08 06:34 | 13.91173 | 100.60233 | 26 ft | 12 kts | 24° |
| 2026-05-08 06:34 | 13.91253 | 100.60276 | 23 ft | 14 kts | 28° |
| 2026-05-08 06:35 | 13.91348 | 100.60328 | 27 ft | 16 kts | 28° |
| 2026-05-08 06:35 | 13.91434 | 100.60378 | 23 ft | 14 kts | 29° |
| 2026-05-08 06:35 | 13.91532 | 100.60434 | 23 ft | 18 kts | 29° |
| 2026-05-08 06:35 | 13.91614 | 100.60480 | 23 ft | 13 kts | 28° |
| 2026-05-08 06:36 | 13.91701 | 100.60529 | 29 ft | 16 kts | 28° |
| 2026-05-08 06:36 | 13.91806 | 100.60587 | 27 ft | 18 kts | 28° |
| 2026-05-08 06:36 | 13.91928 | 100.60654 | 25 ft | 21 kts | 28° |
| 2026-05-08 06:36 | 13.92017 | 100.60705 | 26 ft | 10 kts | 29° |
| 2026-05-08 06:37 | 13.92083 | 100.60702 | 28 ft | 11 kts | 313° |
| 2026-05-08 06:37 | 13.92128 | 100.60628 | 27 ft | 14 kts | 298° |
| 2026-05-08 06:37 | 13.92182 | 100.60569 | 28 ft | 7 kts | 353° |
| 2026-05-08 06:37 | 13.92223 | 100.60566 | 26 ft | 3 kts | 315° |
| 2026-05-08 06:38 | 13.92243 | 100.60535 | 24 ft | 5 kts | 301° |
| 2026-05-08 06:38 | 13.92253 | 100.60517 | 27 ft | 0 kts | 300° |
| 2026-05-08 06:38 | 13.92258 | 100.60508 | 26 ft | 3 kts | 300° |
| 2026-05-08 06:38 | 13.92260 | 100.60504 | 26 ft | 0 kts | 299° |